Time;durP1;ratioP1;P1;durP2;ratioP2;P2;SDS_P1;SDS_P2;PMS_P1;PMS_P2;Temp;Humidity;BMP_temperature;BMP_pressure;BME280_temperature;BME280_humidity;BME280_pressure;Samples;Min_cycle;Max_cycle;Signal;HPM_P1;HPM_P2
2022/05/30 00:00:47;;;;;;;1.37;0.90;;;;;;;;;;4993048;28;20963;-72
2022/05/30 00:03:14;;;;;;;1.00;1.00;;;;;;;;;;4991892;28;20425;-74
2022/05/30 00:05:46;;;;;;;1.07;0.60;;;;;;;;;;4993375;28;20436;-73
2022/05/30 00:08:12;;;;;;;1.13;0.97;;;;;;;;;;4990288;28;21001;-73
2022/05/30 00:10:38;;;;;;;0.77;0.77;;;;;;;;;;4990050;28;20447;-74
2022/05/30 00:13:03;;;;;;;1.17;1.07;;;;;;;;;;4989881;28;20519;-72
2022/05/30 00:15:32;;;;;;;0.70;0.70;;;;;;;;;;4989245;28;20448;-72
2022/05/30 00:17:58;;;;;;;0.60;0.60;;;;;;;;;;4989525;28;20483;-75
2022/05/30 00:20:25;;;;;;;1.10;1.10;;;;;;;;;;4992420;28;20440;-75
2022/05/30 00:22:51;;;;;;;0.67;0.67;;;;;;;;;;4990115;28;20429;-72
2022/05/30 00:25:17;;;;;;;2.93;0.67;;;;;;;;;;4992786;28;20433;-75
2022/05/30 00:27:43;;;;;;;0.60;0.60;;;;;;;;;;4993035;28;20502;-74
2022/05/30 00:30:10;;;;;;;2.73;1.23;;;;;;;;;;4992323;28;20429;-72
2022/05/30 00:32:36;;;;;;;1.20;0.80;;;;;;;;;;4992939;28;20436;-72
2022/05/30 00:35:03;;;;;;;0.67;0.67;;;;;;;;;;4992630;28;20437;-74
2022/05/30 00:37:29;;;;;;;1.00;1.00;;;;;;;;;;4991346;28;20437;-72
2022/05/30 00:39:55;;;;;;;1.10;1.10;;;;;;;;;;4988113;28;20440;-75
2022/05/30 00:42:23;;;;;;;1.90;0.90;;;;;;;;;;4991437;28;20522;-74
2022/05/30 00:44:49;;;;;;;1.00;0.80;;;;;;;;;;4991293;28;20471;-73
2022/05/30 00:47:16;;;;;;;5.73;0.97;;;;;;;;;;4992773;28;20485;-72
2022/05/30 00:49:43;;;;;;;0.60;0.60;;;;;;;;;;4990425;28;20468;-73
2022/05/30 00:52:14;;;;;;;5.80;0.87;;;;;;;;;;4990386;28;20641;-73
2022/05/30 00:54:45;;;;;;;0.80;0.80;;;;;;;;;;4990557;28;21031;-73
2022/05/30 00:57:20;;;;;;;0.97;0.97;;;;;;;;;;4992617;28;20460;-72
2022/05/30 00:59:50;;;;;;;2.27;0.60;;;;;;;;;;4990374;28;20425;-76
2022/05/30 01:02:16;;;;;;;1.23;1.00;;;;;;;;;;4990427;28;20429;-74
2022/05/30 01:07:27;;;;;;;0.70;0.70;;;;;;;;;;4991425;28;20511;-72
2022/05/30 01:09:54;;;;;;;1.20;0.70;;;;;;;;;;4988224;28;20425;-74
2022/05/30 01:12:33;;;;;;;8.83;1.50;;;;;;;;;;4991877;28;20503;-74
2022/05/30 01:14:59;;;;;;;2.20;0.80;;;;;;;;;;4991815;28;20851;-73
2022/05/30 01:17:25;;;;;;;1.27;1.00;;;;;;;;;;4991547;28;20429;-73
2022/05/30 01:19:59;;;;;;;0.90;0.90;;;;;;;;;;4991478;28;20905;-75
2022/05/30 01:22:28;;;;;;;1.07;0.90;;;;;;;;;;4991568;28;20453;-74
2022/05/30 01:25:00;;;;;;;0.60;0.60;;;;;;;;;;4991755;28;20429;-73
2022/05/30 01:27:30;;;;;;;0.77;0.77;;;;;;;;;;4990785;28;20491;-74
2022/05/30 01:29:59;;;;;;;0.73;0.73;;;;;;;;;;4990762;28;20868;-73
2022/05/30 01:32:25;;;;;;;0.80;0.80;;;;;;;;;;4990336;28;20444;-75
2022/05/30 01:34:51;;;;;;;0.70;0.70;;;;;;;;;;4990525;28;20425;-72
2022/05/30 01:37:17;;;;;;;0.90;0.77;;;;;;;;;;4991367;28;20440;-72
2022/05/30 01:39:43;;;;;;;2.27;1.07;;;;;;;;;;4988832;28;20441;-75
2022/05/30 01:42:09;;;;;;;0.80;0.70;;;;;;;;;;4990195;28;20460;-73
2022/05/30 01:44:36;;;;;;;0.83;0.80;;;;;;;;;;4988789;28;20429;-72
2022/05/30 01:47:01;;;;;;;0.60;0.60;;;;;;;;;;4991489;28;20485;-74
2022/05/30 01:49:28;;;;;;;1.77;1.23;;;;;;;;;;4989018;28;20832;-72
2022/05/30 01:51:54;;;;;;;2.10;0.80;;;;;;;;;;4990365;28;20477;-72
2022/05/30 01:54:21;;;;;;;3.30;1.07;;;;;;;;;;4989531;28;20509;-74
2022/05/30 01:56:48;;;;;;;1.57;1.57;;;;;;;;;;4990943;28;20519;-72
2022/05/30 01:59:14;;;;;;;1.10;1.10;;;;;;;;;;4988599;28;20483;-74
2022/05/30 02:01:42;;;;;;;3.43;1.20;;;;;;;;;;4988487;28;20429;-72
2022/05/30 02:04:09;;;;;;;1.67;1.20;;;;;;;;;;4988981;28;21001;-74
2022/05/30 02:06:35;;;;;;;0.87;0.87;;;;;;;;;;4990125;28;20480;-74
2022/05/30 02:09:01;;;;;;;1.00;1.00;;;;;;;;;;4991123;28;20933;-74
2022/05/30 02:11:27;;;;;;;2.03;1.20;;;;;;;;;;4989746;28;20539;-74
2022/05/30 02:13:53;;;;;;;4.87;1.30;;;;;;;;;;4990983;28;20491;-74
2022/05/30 02:19:05;;;;;;;0.87;0.80;;;;;;;;;;4990318;28;20424;-72
2022/05/30 02:21:32;;;;;;;2.63;2.27;;;;;;;;;;4989896;28;20429;-74
2022/05/30 02:23:58;;;;;;;1.53;0.80;;;;;;;;;;4990779;28;20436;-76
2022/05/30 02:26:24;;;;;;;1.10;1.10;;;;;;;;;;4988768;28;20515;-72
2022/05/30 02:28:50;;;;;;;1.10;1.10;;;;;;;;;;4990640;28;20433;-74
2022/05/30 02:31:16;;;;;;;1.00;0.90;;;;;;;;;;4989244;28;21801;-73
2022/05/30 02:36:39;;;;;;;1.70;0.93;;;;;;;;;;4988418;28;20436;-74
2022/05/30 02:39:06;;;;;;;1.10;1.00;;;;;;;;;;4988659;28;20437;-73
2022/05/30 02:41:32;;;;;;;0.97;0.97;;;;;;;;;;4989806;28;20472;-75
2022/05/30 02:43:58;;;;;;;3.60;1.03;;;;;;;;;;4989485;28;20526;-72
2022/05/30 02:46:24;;;;;;;0.87;0.87;;;;;;;;;;4988692;28;20468;-74
2022/05/30 02:48:50;;;;;;;3.53;1.43;;;;;;;;;;4989358;28;20925;-72
2022/05/30 02:51:16;;;;;;;2.00;1.13;;;;;;;;;;4988699;28;20464;-72
2022/05/30 02:53:42;;;;;;;3.80;2.00;;;;;;;;;;4985750;28;20487;-73
2022/05/30 02:56:10;;;;;;;1.93;1.20;;;;;;;;;;4988225;28;20441;-73
2022/05/30 02:58:36;;;;;;;2.40;1.67;;;;;;;;;;4989685;28;20980;-73
2022/05/30 03:01:03;;;;;;;1.30;1.20;;;;;;;;;;4988161;28;20421;-74
2022/05/30 03:03:29;;;;;;;0.97;0.97;;;;;;;;;;4988156;28;20494;-74
2022/05/30 03:05:55;;;;;;;1.30;1.30;;;;;;;;;;4988558;28;20424;-75
2022/05/30 03:08:21;;;;;;;1.43;1.37;;;;;;;;;;4987618;28;20543;-72
2022/05/30 03:10:47;;;;;;;1.17;1.17;;;;;;;;;;4988336;28;20953;-73
2022/05/30 03:13:13;;;;;;;1.47;1.37;;;;;;;;;;4992429;28;20450;-72
2022/05/30 03:15:39;;;;;;;1.20;1.20;;;;;;;;;;4996622;28;20517;-72
2022/05/30 03:18:06;;;;;;;1.50;1.40;;;;;;;;;;4995978;28;20428;-73
2022/05/30 03:20:32;;;;;;;1.87;1.70;;;;;;;;;;4995651;28;20424;-73
2022/05/30 03:22:59;;;;;;;1.13;1.13;;;;;;;;;;4996057;28;20437;-72
2022/05/30 03:25:25;;;;;;;1.97;1.83;;;;;;;;;;4994659;28;21053;-72
2022/05/30 03:27:52;;;;;;;1.50;1.40;;;;;;;;;;4996142;28;20969;-74
2022/05/30 03:30:18;;;;;;;1.23;1.23;;;;;;;;;;4995107;28;20460;-73
2022/05/30 03:32:44;;;;;;;2.20;1.20;;;;;;;;;;4993852;28;20476;-74
2022/05/30 03:35:11;;;;;;;2.03;1.47;;;;;;;;;;4995795;28;20429;-72
2022/05/30 03:37:37;;;;;;;3.07;1.77;;;;;;;;;;4994154;28;20440;-74
2022/05/30 03:40:05;;;;;;;8.50;2.00;;;;;;;;;;4994883;28;20511;-73
2022/05/30 03:42:31;;;;;;;1.97;1.87;;;;;;;;;;4995564;28;20546;-73
2022/05/30 03:44:57;;;;;;;3.50;1.80;;;;;;;;;;4995373;28;20496;-74
2022/05/30 03:47:23;;;;;;;1.53;1.53;;;;;;;;;;4995737;28;20571;-74
2022/05/30 03:49:49;;;;;;;1.23;1.23;;;;;;;;;;4995482;28;20486;-73
2022/05/30 03:52:15;;;;;;;1.80;1.70;;;;;;;;;;4994578;28;20965;-74
2022/05/30 03:54:42;;;;;;;1.63;1.50;;;;;;;;;;4996542;28;20459;-73
2022/05/30 03:57:08;;;;;;;2.27;2.07;;;;;;;;;;4996339;28;20518;-74
2022/05/30 03:59:34;;;;;;;1.47;1.47;;;;;;;;;;4996012;28;20576;-75
2022/05/30 04:02:01;;;;;;;1.90;1.80;;;;;;;;;;4993763;28;20460;-72
2022/05/30 04:04:27;;;;;;;1.80;1.80;;;;;;;;;;4994096;28;20527;-75
2022/05/30 04:06:53;;;;;;;1.83;1.70;;;;;;;;;;4995072;28;20538;-74
2022/05/30 04:09:19;;;;;;;1.53;1.50;;;;;;;;;;4994673;28;20424;-74
2022/05/30 04:11:45;;;;;;;2.00;2.00;;;;;;;;;;4995882;28;20524;-72
2022/05/30 04:14:11;;;;;;;1.83;1.73;;;;;;;;;;4994530;28;20432;-75
2022/05/30 04:16:37;;;;;;;2.10;2.00;;;;;;;;;;4994374;28;20535;-72
2022/05/30 04:19:03;;;;;;;1.97;1.87;;;;;;;;;;4995469;28;20495;-75
2022/05/30 04:21:29;;;;;;;3.33;1.77;;;;;;;;;;4995339;28;20815;-72
2022/05/30 04:23:55;;;;;;;2.10;2.00;;;;;;;;;;4992992;28;20532;-73
2022/05/30 04:26:21;;;;;;;1.40;1.40;;;;;;;;;;4991861;28;20540;-74
2022/05/30 04:28:47;;;;;;;2.10;1.90;;;;;;;;;;4992960;28;20513;-72
2022/05/30 04:31:13;;;;;;;3.77;2.00;;;;;;;;;;4992725;28;20429;-73
2022/05/30 04:33:41;;;;;;;1.67;1.60;;;;;;;;;;4992632;28;20487;-72
2022/05/30 04:36:08;;;;;;;2.00;1.90;;;;;;;;;;4991562;28;20432;-72
2022/05/30 04:38:34;;;;;;;2.03;1.93;;;;;;;;;;4990562;28;20940;-72
2022/05/30 04:41:00;;;;;;;1.93;1.93;;;;;;;;;;4992194;28;20435;-72
2022/05/30 04:43:26;;;;;;;1.97;1.97;;;;;;;;;;4991874;28;20845;-76
2022/05/30 04:46:06;;;;;;;2.20;2.00;;;;;;;;;;4990697;28;20417;-72
2022/05/30 04:48:32;;;;;;;3.43;1.90;;;;;;;;;;4990922;28;20538;-73
2022/05/30 04:50:58;;;;;;;2.57;1.83;;;;;;;;;;4989327;28;20910;-72
2022/05/30 04:53:24;;;;;;;1.93;1.93;;;;;;;;;;4986145;28;20465;-75
2022/05/30 04:55:50;;;;;;;1.87;1.77;;;;;;;;;;4989848;28;20448;-72
2022/05/30 04:58:16;;;;;;;3.37;1.40;;;;;;;;;;4991153;28;20930;-72
2022/05/30 05:00:41;;;;;;;2.07;2.07;;;;;;;;;;4991093;28;20592;-72
2022/05/30 05:03:07;;;;;;;2.17;2.07;;;;;;;;;;4990610;28;20437;-72
2022/05/30 05:05:33;;;;;;;4.43;1.73;;;;;;;;;;4988514;28;20448;-73
2022/05/30 05:08:05;;;;;;;3.00;2.90;;;;;;;;;;4989866;28;20480;-73
2022/05/30 05:10:46;;;;;;;2.03;1.93;;;;;;;;;;4991200;28;20436;-72
2022/05/30 05:13:12;;;;;;;3.53;2.70;;;;;;;;;;4990656;28;20441;-74
2022/05/30 05:15:38;;;;;;;1.80;1.70;;;;;;;;;;4989235;28;20433;-72
2022/05/30 05:18:05;;;;;;;2.23;2.03;;;;;;;;;;4989535;28;20437;-72
2022/05/30 05:20:35;;;;;;;1.83;1.80;;;;;;;;;;4989654;28;20436;-73
2022/05/30 05:23:01;;;;;;;1.90;1.80;;;;;;;;;;4990650;28;20429;-73
2022/05/30 05:25:27;;;;;;;2.03;2.03;;;;;;;;;;4989655;28;20532;-73
2022/05/30 05:27:53;;;;;;;2.17;1.87;;;;;;;;;;4987565;28;20547;-72
2022/05/30 05:30:20;;;;;;;1.67;1.40;;;;;;;;;;4989763;28;20492;-72
2022/05/30 05:32:46;;;;;;;2.20;2.10;;;;;;;;;;4990155;28;20434;-72
2022/05/30 05:35:13;;;;;;;5.83;1.80;;;;;;;;;;4988544;28;20445;-74
2022/05/30 05:37:39;;;;;;;2.30;2.00;;;;;;;;;;4990480;28;20432;-73
2022/05/30 05:40:05;;;;;;;1.10;1.10;;;;;;;;;;4987735;28;20560;-74
2022/05/30 05:42:31;;;;;;;13.70;1.87;;;;;;;;;;4990144;28;20798;-74
2022/05/30 05:44:57;;;;;;;6.20;2.20;;;;;;;;;;4987017;28;20956;-72
2022/05/30 05:47:23;;;;;;;1.80;1.60;;;;;;;;;;4990260;28;20502;-73
2022/05/30 05:49:49;;;;;;;5.70;1.40;;;;;;;;;;4983532;28;20426;-73
2022/05/30 05:52:15;;;;;;;5.87;2.00;;;;;;;;;;4975948;28;20475;-72
2022/05/30 05:54:41;;;;;;;1.77;1.77;;;;;;;;;;4983584;28;20433;-72
2022/05/30 05:57:08;;;;;;;2.00;1.80;;;;;;;;;;4985177;28;20677;-73
2022/05/30 05:59:34;;;;;;;4.43;1.80;;;;;;;;;;4986994;28;20944;-72
2022/05/30 06:02:00;;;;;;;1.60;1.50;;;;;;;;;;4989337;28;20445;-72
2022/05/30 06:04:26;;;;;;;1.63;1.63;;;;;;;;;;4986507;28;21012;-73
2022/05/30 06:06:52;;;;;;;3.50;1.63;;;;;;;;;;4989323;28;20499;-73
2022/05/30 06:09:18;;;;;;;1.73;1.67;;;;;;;;;;4988833;28;20814;-72
2022/05/30 06:11:44;;;;;;;1.73;1.73;;;;;;;;;;4988299;28;20490;-72
2022/05/30 06:14:10;;;;;;;4.53;1.40;;;;;;;;;;4989243;28;20436;-71
2022/05/30 06:16:39;;;;;;;2.57;1.83;;;;;;;;;;4973040;28;20465;-71
2022/05/30 06:19:05;;;;;;;4.20;1.60;;;;;;;;;;4981988;28;20959;-72
2022/05/30 06:21:32;;;;;;;3.23;1.80;;;;;;;;;;4988393;28;20748;-72
2022/05/30 06:23:58;;;;;;;2.50;2.30;;;;;;;;;;4982604;28;20437;-72
2022/05/30 06:26:25;;;;;;;2.33;2.07;;;;;;;;;;4985631;28;20438;-74
2022/05/30 06:28:54;;;;;;;1.50;1.50;;;;;;;;;;4984914;28;21123;-71
2022/05/30 06:31:22;;;;;;;1.97;1.87;;;;;;;;;;4989839;28;20579;-72
2022/05/30 06:33:48;;;;;;;3.00;1.60;;;;;;;;;;4987154;28;20433;-68
2022/05/30 06:36:16;;;;;;;5.57;1.73;;;;;;;;;;4986888;28;20502;-69
2022/05/30 06:38:43;;;;;;;2.37;2.27;;;;;;;;;;4986146;28;20436;-69
2022/05/30 06:41:29;;;;;;;2.03;1.93;;;;;;;;;;4987771;28;20425;-70
2022/05/30 06:43:58;;;;;;;2.23;2.00;;;;;;;;;;4983494;28;20475;-69
2022/05/30 06:46:25;;;;;;;1.50;1.50;;;;;;;;;;4986441;28;20449;-69
2022/05/30 06:48:55;;;;;;;2.83;2.13;;;;;;;;;;4986257;28;20441;-69
2022/05/30 06:51:21;;;;;;;1.87;1.70;;;;;;;;;;4984380;28;20556;-69
2022/05/30 06:53:47;;;;;;;1.53;1.50;;;;;;;;;;4985607;28;20441;-68
2022/05/30 06:56:14;;;;;;;1.90;1.80;;;;;;;;;;4985978;28;20504;-68
2022/05/30 06:58:40;;;;;;;3.33;2.30;;;;;;;;;;4988866;28;20534;-72
2022/05/30 07:01:06;;;;;;;4.30;2.03;;;;;;;;;;4988527;28;20876;-73
2022/05/30 07:03:33;;;;;;;2.03;1.93;;;;;;;;;;4989326;28;20480;-80
2022/05/30 07:05:59;;;;;;;1.40;1.40;;;;;;;;;;4987538;28;20429;-71
2022/05/30 07:08:25;;;;;;;2.13;2.03;;;;;;;;;;4988703;28;20492;-71
2022/05/30 07:10:51;;;;;;;1.63;1.63;;;;;;;;;;4989302;28;20453;-72
2022/05/30 07:13:17;;;;;;;4.33;2.00;;;;;;;;;;4989852;28;20449;-71
2022/05/30 07:15:48;;;;;;;7.77;2.50;;;;;;;;;;4984234;28;20444;-72
2022/05/30 07:18:15;;;;;;;1.60;1.60;;;;;;;;;;4987963;28;20452;-72
2022/05/30 07:20:42;;;;;;;1.50;1.50;;;;;;;;;;4988333;28;20445;-72
2022/05/30 07:23:07;;;;;;;1.83;1.70;;;;;;;;;;4983438;28;20496;-71
2022/05/30 07:25:35;;;;;;;1.63;1.30;;;;;;;;;;4987621;28;20461;-71
2022/05/30 07:28:01;;;;;;;1.60;1.50;;;;;;;;;;4986966;28;21071;-73
2022/05/30 07:30:27;;;;;;;2.50;1.67;;;;;;;;;;4987310;28;20436;-72
2022/05/30 07:32:55;;;;;;;1.73;1.50;;;;;;;;;;4987122;28;20448;-72
2022/05/30 07:35:21;;;;;;;1.87;1.77;;;;;;;;;;4987871;28;20464;-73
2022/05/30 07:37:47;;;;;;;2.30;2.30;;;;;;;;;;4988024;28;20483;-72
2022/05/30 07:40:14;;;;;;;3.00;1.67;;;;;;;;;;4982408;28;20817;-71
2022/05/30 07:42:41;;;;;;;1.60;1.50;;;;;;;;;;4985208;28;20802;-73
2022/05/30 07:45:07;;;;;;;1.57;1.53;;;;;;;;;;4988796;28;20185;-72
2022/05/30 07:47:33;;;;;;;1.53;1.53;;;;;;;;;;4986533;28;20959;-72
2022/05/30 07:50:02;;;;;;;1.57;1.47;;;;;;;;;;4986048;28;20972;-72
2022/05/30 07:52:30;;;;;;;1.23;1.23;;;;;;;;;;4985813;28;20488;-72
2022/05/30 07:54:56;;;;;;;5.03;1.73;;;;;;;;;;4989658;28;20429;-72
2022/05/30 07:57:50;;;;;;;1.93;1.70;;;;;;;;;;4986050;28;20463;-72
2022/05/30 08:00:08;;;;;;;4.23;1.53;;;;;;;;;;4992583;28;20429;-71
2022/05/30 08:02:34;;;;;;;6.10;1.87;;;;;;;;;;4989056;28;20925;-72
2022/05/30 08:05:00;;;;;;;3.70;2.27;;;;;;;;;;4991862;28;20428;-71
2022/05/30 08:07:26;;;;;;;2.87;1.80;;;;;;;;;;4983620;28;20586;-72
2022/05/30 08:09:52;;;;;;;2.00;1.90;;;;;;;;;;4983857;28;20425;-71
2022/05/30 08:12:18;;;;;;;3.47;1.77;;;;;;;;;;4990903;28;20441;-72
2022/05/30 08:14:44;;;;;;;2.30;1.10;;;;;;;;;;4992304;28;20483;-72
2022/05/30 08:17:10;;;;;;;1.67;1.10;;;;;;;;;;4991859;28;20429;-71
2022/05/30 08:19:40;;;;;;;1.37;1.33;;;;;;;;;;4990587;28;20436;-72
2022/05/30 08:22:07;;;;;;;1.57;1.50;;;;;;;;;;4991173;28;20437;-72
2022/05/30 08:24:40;;;;;;;1.73;1.40;;;;;;;;;;4990532;28;20429;-71
2022/05/30 08:27:06;;;;;;;1.47;1.47;;;;;;;;;;4991298;28;20499;-71
2022/05/30 08:29:32;;;;;;;1.27;1.20;;;;;;;;;;4993138;28;20821;-71
2022/05/30 08:31:59;;;;;;;1.90;1.80;;;;;;;;;;4993023;28;20436;-74
2022/05/30 08:34:25;;;;;;;1.60;1.50;;;;;;;;;;4990967;28;20568;-72
2022/05/30 08:36:52;;;;;;;1.90;1.30;;;;;;;;;;4990981;28;20491;-72
2022/05/30 08:42:03;;;;;;;2.23;1.30;;;;;;;;;;4991223;28;20936;-73
2022/05/30 08:44:29;;;;;;;1.30;1.20;;;;;;;;;;4992484;28;20464;-72
2022/05/30 08:47:02;;;;;;;1.73;1.63;;;;;;;;;;4992229;28;20526;-71
2022/05/30 08:49:28;;;;;;;1.80;1.10;;;;;;;;;;4992240;28;20428;-72
2022/05/30 08:51:54;;;;;;;0.80;0.80;;;;;;;;;;4992148;28;20484;-72
2022/05/30 08:54:20;;;;;;;1.53;0.97;;;;;;;;;;4992228;28;20417;-73
2022/05/30 08:56:48;;;;;;;2.63;0.77;;;;;;;;;;4992161;28;20414;-74
2022/05/30 08:59:17;;;;;;;1.03;0.97;;;;;;;;;;4992244;28;21068;-74
2022/05/30 09:01:49;;;;;;;0.60;0.60;;;;;;;;;;4992571;28;20465;-73
2022/05/30 09:04:23;;;;;;;0.90;0.90;;;;;;;;;;4991393;28;20884;-72
2022/05/30 09:06:56;;;;;;;2.77;0.83;;;;;;;;;;4990565;28;20845;-74
2022/05/30 09:09:27;;;;;;;3.23;1.10;;;;;;;;;;4992243;28;20437;-72
2022/05/30 09:12:03;;;;;;;2.43;1.27;;;;;;;;;;4991384;28;20421;-75
2022/05/30 09:14:35;;;;;;;0.73;0.73;;;;;;;;;;4988519;28;20501;-72
2022/05/30 09:17:02;;;;;;;1.13;1.10;;;;;;;;;;4990548;28;20508;-71
2022/05/30 09:19:29;;;;;;;1.83;0.90;;;;;;;;;;4989969;28;20448;-74
2022/05/30 09:22:01;;;;;;;10.00;1.10;;;;;;;;;;4990475;28;20504;-75
2022/05/30 09:24:27;;;;;;;1.50;0.90;;;;;;;;;;4987291;28;20797;-71
2022/05/30 09:26:54;;;;;;;0.70;0.70;;;;;;;;;;4990559;28;20588;-71
2022/05/30 09:29:27;;;;;;;0.90;0.90;;;;;;;;;;4991897;28;20444;-72
2022/05/30 09:32:02;;;;;;;0.80;0.80;;;;;;;;;;4989491;28;20447;-72
2022/05/30 09:34:40;;;;;;;6.33;2.03;;;;;;;;;;4987414;28;20444;-72
2022/05/30 09:37:06;;;;;;;0.70;0.70;;;;;;;;;;4990080;28;20445;-74
2022/05/30 09:39:47;;;;;;;1.53;0.93;;;;;;;;;;4989170;28;20491;-71
2022/05/30 09:42:22;;;;;;;0.70;0.70;;;;;;;;;;4988600;28;20933;-71
2022/05/30 09:44:50;;;;;;;0.80;0.80;;;;;;;;;;4985865;28;20432;-74
2022/05/30 09:47:18;;;;;;;1.70;1.10;;;;;;;;;;4991199;28;20512;-72
2022/05/30 09:49:45;;;;;;;1.13;1.03;;;;;;;;;;4988603;28;20493;-71
2022/05/30 09:52:26;;;;;;;2.63;1.70;;;;;;;;;;4990899;28;20476;-71
2022/05/30 09:54:56;;;;;;;1.20;0.80;;;;;;;;;;4986047;28;20763;-72
2022/05/30 09:57:24;;;;;;;1.63;1.03;;;;;;;;;;4990114;28;20425;-71
2022/05/30 09:59:52;;;;;;;3.80;0.80;;;;;;;;;;4990555;28;20425;-74
2022/05/30 10:02:23;;;;;;;0.80;0.80;;;;;;;;;;4987993;28;20507;-72
2022/05/30 10:04:54;;;;;;;0.57;0.57;;;;;;;;;;4989769;28;20425;-72
2022/05/30 10:07:20;;;;;;;2.17;1.00;;;;;;;;;;4989686;28;20504;-73
2022/05/30 10:10:00;;;;;;;1.00;1.00;;;;;;;;;;4988967;28;20969;-74
2022/05/30 10:12:29;;;;;;;2.73;1.10;;;;;;;;;;4987506;28;20428;-74
2022/05/30 10:14:55;;;;;;;0.70;0.70;;;;;;;;;;4988386;28;20506;-71
2022/05/30 10:17:32;;;;;;;0.80;0.70;;;;;;;;;;4990868;28;20433;-71
2022/05/30 10:19:59;;;;;;;1.87;1.60;;;;;;;;;;4989513;28;20437;-72
2022/05/30 10:28:24;;;;;;;0.73;0.73;;;;;;;;;;4985781;28;20472;-72
2022/05/30 10:31:07;;;;;;;3.90;1.20;;;;;;;;;;4989639;28;20431;-74
2022/05/30 10:33:48;;;;;;;1.10;0.83;;;;;;;;;;4985860;28;20445;-71
2022/05/30 10:36:14;;;;;;;1.07;0.50;;;;;;;;;;4989906;28;20425;-71
2022/05/30 10:38:40;;;;;;;0.60;0.60;;;;;;;;;;4987539;28;20433;-74
2022/05/30 10:41:20;;;;;;;1.47;0.90;;;;;;;;;;4989503;28;20193;-75
2022/05/30 10:43:49;;;;;;;1.37;0.60;;;;;;;;;;4988499;28;20276;-72
2022/05/30 10:46:27;;;;;;;3.43;0.63;;;;;;;;;;4988767;28;20410;-71
2022/05/30 10:48:58;;;;;;;1.00;1.00;;;;;;;;;;4983982;28;20869;-74
2022/05/30 10:51:28;;;;;;;1.90;0.87;;;;;;;;;;4990130;28;20484;-74
2022/05/30 10:54:05;;;;;;;1.03;0.80;;;;;;;;;;4987725;28;20464;-71
2022/05/30 10:56:33;;;;;;;0.80;0.80;;;;;;;;;;4989959;28;20988;-71
2022/05/30 10:59:18;;;;;;;3.67;1.67;;;;;;;;;;4986900;28;20516;-73
2022/05/30 11:01:47;;;;;;;1.20;0.80;;;;;;;;;;4989684;28;20441;-71
2022/05/30 11:04:19;;;;;;;2.70;0.80;;;;;;;;;;4988496;28;20484;-75
2022/05/30 11:06:46;;;;;;;1.57;1.10;;;;;;;;;;4990027;28;21040;-71
2022/05/30 11:09:17;;;;;;;1.40;1.20;;;;;;;;;;4989090;28;20447;-71
2022/05/30 11:11:48;;;;;;;1.20;0.70;;;;;;;;;;4988607;28;20418;-74
2022/05/30 11:14:14;;;;;;;3.93;0.80;;;;;;;;;;4988546;28;20508;-75
2022/05/30 11:16:54;;;;;;;1.27;0.90;;;;;;;;;;4988289;28;20535;-74
2022/05/30 11:19:21;;;;;;;2.10;1.00;;;;;;;;;;4983999;28;20201;-75
2022/05/30 11:21:51;;;;;;;0.80;0.80;;;;;;;;;;4984801;28;20443;-71
2022/05/30 11:24:17;;;;;;;0.70;0.70;;;;;;;;;;4985621;28;20192;-74
2022/05/30 11:26:49;;;;;;;1.80;0.90;;;;;;;;;;4986654;28;20854;-73
2022/05/30 11:29:31;;;;;;;0.97;0.90;;;;;;;;;;4985071;28;20437;-72
2022/05/30 11:32:00;;;;;;;0.93;0.93;;;;;;;;;;4987976;28;20432;-72
2022/05/30 11:34:32;;;;;;;0.70;0.70;;;;;;;;;;4981201;28;20437;-72
2022/05/30 11:37:04;;;;;;;0.87;0.87;;;;;;;;;;4993289;28;20433;-74
2022/05/30 11:39:45;;;;;;;4.13;1.77;;;;;;;;;;4989432;28;20826;-74
2022/05/30 11:42:30;;;;;;;1.37;1.27;;;;;;;;;;4991177;28;20433;-72
2022/05/30 11:44:59;;;;;;;0.80;0.80;;;;;;;;;;4991389;28;20429;-75
2022/05/30 11:47:25;;;;;;;0.93;0.70;;;;;;;;;;4992051;28;20484;-72
2022/05/30 11:49:58;;;;;;;1.47;0.97;;;;;;;;;;4990809;28;20515;-74
2022/05/30 11:52:45;;;;;;;1.13;1.03;;;;;;;;;;4992605;28;20778;-73
2022/05/30 11:55:27;;;;;;;3.67;0.70;;;;;;;;;;4982087;28;20433;-72
2022/05/30 11:58:20;;;;;;;1.07;0.70;;;;;;;;;;4988273;28;20437;-74
2022/05/30 12:00:47;;;;;;;0.60;0.60;;;;;;;;;;4989624;28;20441;-74
2022/05/30 12:03:30;;;;;;;2.67;1.03;;;;;;;;;;4993037;28;20921;-73
2022/05/30 12:06:14;;;;;;;0.60;0.60;;;;;;;;;;4988401;28;20433;-73
2022/05/30 12:08:50;;;;;;;0.50;0.50;;;;;;;;;;4990201;28;20495;-74
2022/05/30 12:11:38;;;;;;;0.77;0.60;;;;;;;;;;4988757;28;20460;-72
2022/05/30 12:14:22;;;;;;;0.63;0.57;;;;;;;;;;4990290;28;20441;-71
2022/05/30 12:16:48;;;;;;;0.60;0.60;;;;;;;;;;4990938;28;20528;-75
2022/05/30 12:24:58;;;;;;;1.23;0.80;;;;;;;;;;4987635;28;20798;-73
2022/05/30 12:27:35;;;;;;;0.73;0.73;;;;;;;;;;4991174;28;20582;-75
2022/05/30 12:30:14;;;;;;;2.27;1.10;;;;;;;;;;4989263;28;20985;-71
2022/05/30 12:32:41;;;;;;;1.17;1.17;;;;;;;;;;4992069;28;20817;-73
2022/05/30 12:35:22;;;;;;;11.70;4.97;;;;;;;;;;4990276;28;20488;-73
2022/05/30 12:37:51;;;;;;;3.23;1.10;;;;;;;;;;4989980;28;20905;-72
2022/05/30 12:40:20;;;;;;;6.17;1.00;;;;;;;;;;4989966;28;20436;-72
2022/05/30 12:42:56;;;;;;;2.20;1.13;;;;;;;;;;4991529;28;20925;-72
2022/05/30 12:45:34;;;;;;;0.73;0.73;;;;;;;;;;4989449;28;20830;-74
2022/05/30 12:48:01;;;;;;;1.67;0.70;;;;;;;;;;4989452;28;20484;-73
2022/05/30 12:50:31;;;;;;;1.00;1.00;;;;;;;;;;4987280;28;20699;-76
2022/05/30 12:52:58;;;;;;;1.10;1.00;;;;;;;;;;4985476;28;20492;-72
2022/05/30 12:55:35;;;;;;;0.80;0.80;;;;;;;;;;4988279;28;20974;-74
2022/05/30 12:58:01;;;;;;;0.70;0.70;;;;;;;;;;4989159;28;20511;-72
2022/05/30 13:00:42;;;;;;;1.37;0.97;;;;;;;;;;4987171;28;20441;-73
2022/05/30 13:03:08;;;;;;;3.90;1.30;;;;;;;;;;4988928;28;20449;-74
2022/05/30 13:05:40;;;;;;;1.10;1.10;;;;;;;;;;4990248;28;20436;-74
2022/05/30 13:08:25;;;;;;;0.87;0.87;;;;;;;;;;4990709;28;20950;-71
2022/05/30 13:10:53;;;;;;;0.93;0.90;;;;;;;;;;4989784;28;20480;-73
2022/05/30 13:13:25;;;;;;;3.90;0.80;;;;;;;;;;4986510;28;20453;-76
2022/05/30 13:15:55;;;;;;;1.33;1.23;;;;;;;;;;4988275;28;20448;-75
2022/05/30 13:18:22;;;;;;;4.50;1.47;;;;;;;;;;4988774;28;20502;-74
2022/05/30 13:20:53;;;;;;;2.20;0.77;;;;;;;;;;4989298;28;20701;-75
2022/05/30 13:23:36;;;;;;;0.57;0.57;;;;;;;;;;4987641;28;20434;-73
2022/05/30 13:26:03;;;;;;;1.80;1.03;;;;;;;;;;4990025;28;20457;-72
2022/05/30 13:28:32;;;;;;;1.03;1.00;;;;;;;;;;4990178;28;20484;-74
2022/05/30 13:31:00;;;;;;;0.70;0.70;;;;;;;;;;4989406;28;20433;-73
2022/05/30 13:33:38;;;;;;;1.13;0.70;;;;;;;;;;4990773;28;20548;-74
2022/05/30 13:36:05;;;;;;;0.87;0.77;;;;;;;;;;4987543;28;20433;-72
2022/05/30 13:38:42;;;;;;;1.07;1.07;;;;;;;;;;4990749;28;20522;-73
2022/05/30 13:41:12;;;;;;;0.73;0.73;;;;;;;;;;4990354;28;20441;-74
2022/05/30 13:43:38;;;;;;;0.70;0.70;;;;;;;;;;4988864;28;20904;-73
2022/05/30 13:46:04;;;;;;;2.23;0.70;;;;;;;;;;4989684;28;20441;-71
2022/05/30 13:48:33;;;;;;;1.60;1.00;;;;;;;;;;4989819;28;20488;-73
2022/05/30 13:51:12;;;;;;;0.70;0.70;;;;;;;;;;4987504;28;20457;-71
2022/05/30 13:53:41;;;;;;;3.33;1.10;;;;;;;;;;4986320;28;20520;-74
2022/05/30 13:56:11;;;;;;;2.10;2.10;;;;;;;;;;4989120;28;20445;-74
2022/05/30 13:58:38;;;;;;;0.87;0.87;;;;;;;;;;4990391;28;20457;-71
2022/05/30 14:01:06;;;;;;;1.13;0.90;;;;;;;;;;4988963;28;20448;-71
2022/05/30 14:03:32;;;;;;;0.73;0.53;;;;;;;;;;4990496;28;20439;-72
2022/05/30 14:05:58;;;;;;;1.63;1.00;;;;;;;;;;4985732;28;20905;-72
2022/05/30 14:08:30;;;;;;;1.23;1.13;;;;;;;;;;4987415;28;20550;-71
2022/05/30 14:10:56;;;;;;;0.67;0.67;;;;;;;;;;4989504;28;20535;-71
2022/05/30 14:13:49;;;;;;;1.43;0.97;;;;;;;;;;4987014;28;20429;-72
2022/05/30 14:16:32;;;;;;;0.80;0.80;;;;;;;;;;4989635;28;20441;-72
2022/05/30 14:19:01;;;;;;;3.70;1.07;;;;;;;;;;5000961;28;20477;-72
2022/05/30 14:21:28;;;;;;;3.60;1.07;;;;;;;;;;4988904;28;20434;-71
2022/05/30 14:24:03;;;;;;;0.70;0.70;;;;;;;;;;4990460;28;20944;-73
2022/05/30 14:26:30;;;;;;;0.67;0.67;;;;;;;;;;4989451;28;20535;-71
2022/05/30 14:29:06;;;;;;;0.60;0.60;;;;;;;;;;4988354;28;20445;-71
2022/05/30 14:31:34;;;;;;;1.10;1.00;;;;;;;;;;4984983;28;20437;-71
2022/05/30 14:34:25;;;;;;;0.80;0.80;;;;;;;;;;4985394;28;20519;-71
2022/05/30 14:36:51;;;;;;;1.17;0.87;;;;;;;;;;4982031;28;20486;-72
2022/05/30 14:39:21;;;;;;;1.50;1.33;;;;;;;;;;4988162;28;21676;-71
2022/05/30 14:41:59;;;;;;;0.73;0.73;;;;;;;;;;4988004;28;20438;-71
2022/05/30 14:44:29;;;;;;;1.80;0.90;;;;;;;;;;4987803;28;20572;-71
2022/05/30 14:46:55;;;;;;;1.00;1.00;;;;;;;;;;4985807;28;20472;-71
2022/05/30 14:49:24;;;;;;;1.27;0.83;;;;;;;;;;4981384;28;20450;-74
2022/05/30 14:51:51;;;;;;;8.13;1.17;;;;;;;;;;4986194;28;20989;-71
2022/05/30 14:54:24;;;;;;;0.50;0.50;;;;;;;;;;4985951;28;20448;-72
2022/05/30 14:56:50;;;;;;;0.83;0.83;;;;;;;;;;4984263;28;20519;-71
2022/05/30 14:59:34;;;;;;;0.80;0.80;;;;;;;;;;4986261;28;20436;-71
2022/05/30 15:02:00;;;;;;;1.07;1.07;;;;;;;;;;4980181;28;20439;-71
2022/05/30 15:04:26;;;;;;;0.70;0.70;;;;;;;;;;4982306;28;20620;-71
2022/05/30 15:07:01;;;;;;;9.33;0.87;;;;;;;;;;4985887;28;20530;-72
2022/05/30 15:09:28;;;;;;;0.70;0.70;;;;;;;;;;4988942;28;20446;-71
2022/05/30 15:11:54;;;;;;;2.80;0.97;;;;;;;;;;4990038;28;20421;-72
2022/05/30 15:14:26;;;;;;;3.07;1.20;;;;;;;;;;4989705;28;20443;-71
2022/05/30 15:16:53;;;;;;;1.47;1.03;;;;;;;;;;4987792;28;20447;-71